createdAt,value
2023-03-08T00:11:23.459Z,15.2
2023-03-08T00:26:32.602Z,11.6
2023-03-08T00:41:42.132Z,15
2023-03-08T00:56:51.507Z,11.6
2023-03-08T01:12:00.232Z,11.8
2023-03-08T01:27:09.856Z,9.1
2023-03-08T01:42:19.247Z,7.6
2023-03-08T01:57:29.316Z,7
2023-03-08T02:12:39.154Z,6
2023-03-08T02:27:48.865Z,6.6
2023-03-08T02:42:58.135Z,6.9
2023-03-08T02:58:07.926Z,6.9
2023-03-08T03:13:17.016Z,6.3
2023-03-08T03:28:26.740Z,6.3
2023-03-08T03:43:37.258Z,7.3
2023-03-08T03:58:45.814Z,8.1
2023-03-08T04:13:55.328Z,8.8
2023-03-08T04:29:03.689Z,7.2
2023-03-08T04:44:13.241Z,6.3
2023-03-08T04:59:23.273Z,7.4
2023-03-08T05:14:37.192Z,7.7
2023-03-08T05:29:47.460Z,7.5
2023-03-08T05:44:57.427Z,7.3
2023-03-08T06:00:07.403Z,7.3
2023-03-08T06:15:16.821Z,8.2
2023-03-08T06:30:27.056Z,9.2
2023-03-08T06:45:36.806Z,10
2023-03-08T07:00:46.161Z,10.9
2023-03-08T07:15:56.010Z,7.7
2023-03-08T07:31:05.945Z,8.6
2023-03-08T07:46:16.350Z,9.2
2023-03-08T08:01:26.094Z,9.5
2023-03-08T08:16:38.038Z,9.5
2023-03-08T08:31:48.538Z,11.2
2023-03-08T08:46:57.952Z,13.5
2023-03-08T09:02:08.174Z,12.9
2023-03-08T09:17:18.884Z,13.3
2023-03-08T09:32:28.852Z,14.3
2023-03-08T09:47:39.184Z,13.4
2023-03-08T10:02:49.531Z,13.2
2023-03-08T10:17:59.545Z,14.3
2023-03-08T10:33:09.669Z,14.6
2023-03-08T10:48:18.892Z,13
2023-03-08T11:03:29.033Z,14.7
2023-03-08T11:18:39.148Z,13.1
2023-03-08T11:33:49.004Z,11.4
2023-03-08T11:48:59.744Z,12.6
2023-03-08T12:04:09.525Z,15.5
2023-03-08T12:19:19.892Z,11.4
2023-03-08T12:34:29.765Z,9.5
2023-03-08T12:49:39.946Z,9.6
2023-03-08T13:04:50.183Z,6.5
2023-03-08T13:20:00.446Z,6.6
2023-03-08T13:35:10.817Z,7.8
2023-03-08T13:50:20.969Z,7.2
2023-03-08T14:05:30.301Z,6.7
2023-03-08T14:20:39.741Z,9.1
2023-03-08T14:35:50.019Z,6.8
2023-03-08T14:51:00.272Z,10.7
2023-03-08T15:06:10.268Z,10.7
2023-03-08T15:21:19.496Z,11.3
2023-03-08T15:36:29.334Z,11
2023-03-08T15:51:39.227Z,8.7
2023-03-08T16:06:49.312Z,8.6
2023-03-08T16:21:59.235Z,10.1
2023-03-08T16:37:08.756Z,7.2
2023-03-08T16:52:18.525Z,9.5
2023-03-08T17:07:28.085Z,8.9
2023-03-08T17:22:37.460Z,8.7
2023-03-08T17:37:47.164Z,8.7
2023-03-08T17:52:57.931Z,8.9
2023-03-08T18:08:07.259Z,7.3
2023-03-08T18:23:17.299Z,8.6
2023-03-08T18:38:26.809Z,9.3
2023-03-08T18:53:38.385Z,9.8
2023-03-08T19:08:47.731Z,9.7
2023-03-08T19:23:57.593Z,10.2
2023-03-08T19:39:07.151Z,8
2023-03-08T19:54:16.800Z,8
2023-03-08T20:09:26.108Z,7.5
2023-03-08T20:24:38.287Z,9.8
2023-03-08T20:39:46.570Z,11.4
2023-03-08T20:54:56.223Z,11.1
2023-03-08T21:10:05.791Z,13.3
2023-03-08T21:25:15.294Z,14.5
2023-03-08T21:40:24.645Z,13.1
2023-03-08T21:55:33.084Z,12.3
2023-03-08T22:10:42.707Z,11.5
2023-03-08T22:25:52.613Z,12.3
2023-03-08T22:41:02.175Z,11
2023-03-08T22:56:11.783Z,12.3
2023-03-08T23:11:21.090Z,11.3
2023-03-08T23:26:30.407Z,9.8
2023-03-08T23:41:40.054Z,11.9
2023-03-08T23:56:49.411Z,11
